Ship Status Report: callsign AMOUK21

sailwx.info

Track history (hours):
 
Tides and Currents Weather Stations Pressure Air Temp Water Temp Dewpoint Dewpoint Depression Visibility Wind Speed Wind Dir Waves Ship Positions

Callsign AMOUK21 (name unknown)

Last reported at 2014-Nov-22 23:00 UTC. Time now 2014-Nov-23 01:13 UTC.
Position N 56°24' W 005°30'.

Barometer 1013.3 mb
Air temperature 7.7 ° C
Dewpoint 5.9 ° C

Date/timePositionNaut miles runAvg speedWind from/ knotsBaromVisibWave heightAir tempDewpointWater temp
2014-Nov-22 23:00N 56°24' W 005°30'0 0.0 1013.3 7.7 5.9
2014-Nov-22 22:00N 56°24' W 005°30'0 0.0 1012.7 7.3 5.8
2014-Nov-22 21:00N 56°24' W 005°30'0 0.0 1012.0 8.0 6.6
2014-Nov-22 20:00N 56°24' W 005°30'0 0.0 1011.3 7.9 6.5
2014-Nov-22 19:00N 56°24' W 005°30'9 4.5 1010.3 8.3 6.1
2014-Nov-22 17:00N 56°30' W 005°42'9 8.9 1008.8 9.9 6.5
2014-Nov-22 16:00N 56°24' W 005°30'0 0.0 1008.2 10.6 7.0
2014-Nov-22 15:00N 56°24' W 005°30'1514.6 1006.6 11.4 8.3
2014-Nov-22 14:00N 56°30' W 005°54'1514.5 1006.1 10.9 8.4
2014-Nov-22 13:00N 56°36' W 006°18'10 9.9 1005.2 11.1 9.1
2014-Nov-22 12:00N 56°36' W 006°36'9 8.9 1004.6 11.5 9.2
2014-Nov-22 11:00N 56°30' W 006°48'1211.6 1003.4 11.7 9.1
2014-Nov-22 10:00N 56°36' W 006°30'1716.5 1002.9 12.0 9.5
2014-Nov-22 09:00N 56°36' W 006°00'1211.6 1002.9 10.1 8.4
2014-Nov-22 08:00N 56°30' W 005°42'9 8.9 1002.8 10.2 7.7
2014-Nov-22 07:00N 56°24' W 005°30'0 0.0 1002.2 9.4 7.3
2014-Nov-22 06:00N 56°24' W 005°30'0 0.0 1001.9 9.2 6.9
2014-Nov-22 05:00N 56°24' W 005°30'0 0.0 1001.7 9.1 6.3
2014-Nov-22 04:00N 56°24' W 005°30'0 0.0 1002.6 8.5 6.1
2014-Nov-22 03:00N 56°24' W 005°30'0 0.0 1003.4 8.1 6.1
2014-Nov-22 02:00N 56°24' W 005°30'0 0.0 1003.7 8.3 5.8
2014-Nov-22 01:00N 56°24' W 005°30'0 0.0 1004.1 8.3 5.6
2014-Nov-21 23:00N 56°24' W 005°30'0 0.0 1005.6 8.5 4.8
2014-Nov-21 22:00N 56°24' W 005°30'0 0.0 1006.2 8.8 5.0
2014-Nov-21 21:00N 56°24' W 005°30'9 8.9 1007.2 8.2 5.1
2014-Nov-21 20:00N 56°30' W 005°42'1817.8 1007.3 9.3 5.1
2014-Nov-21 19:00N 56°42' W 006°06'1414.5 1007.3 9.0 4.8
2014-Nov-21 18:00N 56°48' W 006°30'1414.4 1007.7 10.1 4.2
2014-Nov-21 17:00N 56°54' W 006°54'1616.4 1007.5 9.9 5.5
2014-Nov-21 16:00N 56°54' W 007°24'0 0.0 1008.4 9.0 6.0
2014-Nov-21 15:00N 56°54' W 007°24'1413.7 1008.1 10.2 5.4
2014-Nov-21 14:00N 57°06' W 007°12'3 3.3 1011.5 10.1 4.9
2014-Nov-21 13:00N 57°06' W 007°06'1717.4 1013.4 10.2 5.3
2014-Nov-21 12:00N 57°00' W 006°36'1615.5 1015.2 10.4 4.3
2014-Nov-21 11:00N 56°48' W 006°18'1615.5 1016.3 9.4 4.7
2014-Nov-21 10:00N 56°36' W 006°00'1817.9 1016.9 9.2 5.2
2014-Nov-21 09:00N 56°24' W 005°36'3 3.3 1018.9 8.3 4.1
2014-Nov-21 08:00N 56°24' W 005°30'0 0.0 1019.0 7.7 4.0
2014-Nov-21 07:00N 56°24' W 005°30'12 5.8 1019.4 8.0 4.5
2014-Nov-21 05:00N 56°30' W 005°48'9 8.9 1020.1 9.3 5.3
2014-Nov-21 04:00N 56°36' W 006°00'1413.7 1020.4 9.0 5.2
2014-Nov-21 03:00N 56°48' W 006°12'7 6.8 1020.5 9.6 5.3
2014-Nov-21 02:00N 56°54' W 006°06'1515.5 1021.7 10.2 5.7
2014-Nov-21 01:00N 57°06' W 006°24'1313.0 1021.9 10.7 5.8
2014-Nov-21 00:00N 57°06' W 006°48'1616.3 1022.2 10.8 6.7
2014-Nov-20 23:00N 57°06' W 007°18'3 3.3 1022.7 10.9 7.2
2014-Nov-20 22:00N 57°06' W 007°12'1515.5 1023.1 10.6 7.7
2014-Nov-20 21:00N 56°54' W 007°30'10 9.8 1022.6 10.8 8.1
2014-Nov-20 20:00N 56°54' W 007°12'1414.4 1023.2 10.9 7.8
2014-Nov-20 19:00N 56°48' W 006°48'1817.5 1024.0 10.7 6.8
2014-Nov-20 18:00N 56°42' W 006°18'1414.5 1024.0 10.5 6.9
2014-Nov-20 17:00N 56°36' W 005°54'0 0.0 1024.1 10.5 6.5
2014-Nov-20 14:00N 56°36' W 005°54'1313.2 1024.4 11.0 6.8
2014-Nov-20 13:00N 56°36' W 006°18'10 9.9 1024.6 11.0 6.4
2014-Nov-20 12:00N 56°36' W 006°36'9 8.9 1024.3 11.0 6.8
2014-Nov-20 11:00N 56°30' W 006°48'1211.6 1024.9 11.1 7.7
2014-Nov-20 10:00N 56°36' W 006°30'1313.2 1025.0 10.5 6.6
2014-Nov-20 09:00N 56°36' W 006°06'1514.5 1025.1 9.3 6.5
2014-Nov-20 08:00N 56°30' W 005°42'9 8.9 1024.9 10.4 7.0
2014-Nov-20 07:00N 56°24' W 005°30'0 0.0 1024.8 6.7 4.9
2014-Nov-20 06:00N 56°24' W 005°30'0 0.0 1024.2 7.0 5.1
2014-Nov-20 05:00N 56°24' W 005°30'0 0.0 1023.7 8.5 6.3
2014-Nov-20 03:00N 56°24' W 005°30'0 0.0 1023.6 7.8 5.5
2014-Nov-20 02:00N 56°24' W 005°30'0 0.0 1023.8 8.5 5.5
2014-Nov-20 01:00N 56°24' W 005°30'0 0.0 1023.6 8.5 5.6
2014-Nov-19 23:00N 56°24' W 005°30'0 0.0 1023.4 8.3 5.3
2014-Nov-19 22:00N 56°24' W 005°30'0 0.0 1022.8 9.2 5.7
2014-Nov-19 21:00N 56°24' W 005°30'0 0.0 1022.4 8.4 5.3
2014-Nov-19 18:00N 56°24' W 005°30'9 8.9 1020.6 10.5 5.9
2014-Nov-19 17:00N 56°30' W 005°42'9 8.9 1019.8 11.3 6.8
2014-Nov-19 16:00N 56°24' W 005°30'0 0.0 1020.0 10.8 5.5
2014-Nov-19 14:00N 56°24' W 005°30'1211.6 1019.7 11.2 5.5
2014-Nov-19 13:00N 56°30' W 005°48'1817.8 1019.2 11.4 6.1
2014-Nov-19 12:00N 56°42' W 006°12'1414.5 1019.0 11.7 5.3
2014-Nov-19 11:00N 56°48' W 006°36'1414.4 1018.6 11.5 5.8
2014-Nov-19 10:00N 56°54' W 007°00'12 5.8 1018.2 11.4 6.5
2014-Nov-19 08:00N 57°00' W 007°18'1212.0 1016.1 11.1 6.5
2014-Nov-19 07:00N 57°12' W 007°18'0 0.0 1017.3 10.7 4.7
2014-Nov-19 06:00N 57°12' W 007°18'0 0.0 1017.0 10.7 5.8
2014-Nov-19 05:00N 57°12' W 007°18'0 0.0 1016.6 10.8 5.9
2014-Nov-19 04:00N 57°12' W 007°18'0 0.0 1016.4 10.8 6.4
2014-Nov-19 03:00N 57°12' W 007°18'0 0.0 1016.0 10.9 6.9
2014-Nov-19 02:00N 57°12' W 007°18'0 0.0 1015.9 10.9 7.2
2014-Nov-19 01:00N 57°12' W 007°18'0 0.0 1015.9 10.8 7.2
2014-Nov-19 00:00N 57°12' W 007°18'0 0.0 1015.8 11.1 7.4
2014-Nov-18 23:00N 57°12' W 007°18'7 6.8 1015.6 11.0 7.2
2014-Nov-18 22:00N 57°06' W 007°12'1111.5 1015.0 11.6 7.9
2014-Nov-18 21:00N 57°00' W 007°30'1211.5 1014.1 11.3 7.7
2014-Nov-18 20:00N 56°54' W 007°12'1414.4 1014.8 11.6 8.1
2014-Nov-18 19:00N 56°48' W 006°48'1817.5 1014.9 11.4 7.9
2014-Nov-18 18:00N 56°42' W 006°18'1817.8 1014.9 10.7 7.3
2014-Nov-18 17:00N 56°30' W 005°54'15 7.3 1014.5 11.1 7.4
2014-Nov-18 15:00N 56°24' W 005°30'1817.9 1013.9 12.2 6.8
2014-Nov-18 14:00N 56°36' W 005°54'1313.2 1013.5 12.0 7.7
2014-Nov-18 13:00N 56°36' W 006°18'10 9.9 1013.2 11.6 6.7
2014-Nov-18 12:00N 56°36' W 006°36'9 8.9 1013.1 11.7 7.2
2014-Nov-18 11:00N 56°30' W 006°48'1211.6 1012.8 11.7 7.3
2014-Nov-18 10:00N 56°36' W 006°30'1414.5 1013.2 11.4 7.1
2014-Nov-18 09:00N 56°42' W 006°06'1817.8 1013.5 10.7 5.6
2014-Nov-18 08:00N 56°30' W 005°42'9 8.9 1012.6 11.1 6.4
2014-Nov-18 07:00N 56°24' W 005°30'0 0.0 1012.6 10.5 5.5
2014-Nov-18 05:00N 56°24' W 005°30'0 0.0 1012.3 9.9 6.0
2014-Nov-18 01:00N 56°24' W 005°30'0 0.0 1011.9 10.1 7.1
2014-Nov-18 00:00N 56°24' W 005°30'0 0.0 1011.9 10.1 7.4
2014-Nov-17 23:00N 56°24' W 005°30'0 0.0 1011.5 9.9 7.4
2014-Nov-17 22:00N 56°24' W 005°30'0 0.0 1011.6 10.5 7.3
2014-Nov-17 21:00N 56°24' W 005°30'0 0.0 1011.3 9.9 6.4
2014-Nov-17 20:00N 56°24' W 005°30'0 0.0 1010.9 9.7 6.4
2014-Nov-17 18:00N 56°24' W 005°30'9 8.9 1010.1 10.9 7.0
2014-Nov-17 17:00N 56°30' W 005°42'3 0.8 1009.7 11.5 7.7
2014-Nov-17 13:00N 56°30' W 005°48'1817.8 1009.0 10.7 6.8
2014-Nov-17 12:00N 56°42' W 006°12'4414.8 1008.6 11.1 6.3
2014-Nov-17 09:00N 56°54' W 007°30'9 8.9 1009.7 10.9 8.1
2014-Nov-17 08:00N 57°00' W 007°18'1212.0 1009.7 11.2 8.6
2014-Nov-17 07:00N 57°12' W 007°18'0 0.0 1009.2 10.8 8.0
2014-Nov-17 06:00N 57°12' W 007°18'0 0.0 1009.1 10.2 8.6
2014-Nov-17 05:00N 57°12' W 007°18'0 0.0 1008.9 9.5 7.7
2014-Nov-17 04:00N 57°12' W 007°18'0 0.0 1008.8 9.9 7.8
2014-Nov-17 03:00N 57°12' W 007°18'0 0.0 1008.6 10.4 8.2
2014-Nov-17 02:00N 57°12' W 007°18'0 0.0 1008.7 9.9 8.6
2014-Nov-17 01:00N 57°12' W 007°18'0 0.0 1008.4 9.9 8.4
2014-Nov-17 00:00N 57°12' W 007°18'0 0.0 1008.4 10.0 8.2
2014-Nov-16 23:00N 57°12' W 007°18'0 0.0 1008.3 10.0 8.3
2014-Nov-16 22:00N 57°12' W 007°18'1212.0 1008.2 9.5 7.6
2014-Nov-16 21:00N 57°00' W 007°18'9 8.9 1006.9 10.7 8.1
2014-Nov-16 20:00N 56°54' W 007°30'1616.4 1007.8 10.6 7.1
2014-Nov-16 19:00N 56°54' W 007°00'1414.4 1006.7 11.0 8.2
2014-Nov-16 18:00N 56°48' W 006°36'1817.5 1006.2 11.1 8.3
2014-Nov-16 17:00N 56°42' W 006°06'1615.6 1005.9 10.4 7.1
2014-Nov-16 16:00N 56°30' W 005°48'1211.6 1005.1 10.4 6.4
2014-Nov-16 15:00N 56°24' W 005°30'9 8.9 1004.8 9.8 6.1
2014-Nov-16 14:00N 56°30' W 005°42'1817.8 1004.8 10.1 5.6
2014-Nov-16 13:00N 56°42' W 006°06'1414.5 1004.8 9.9 6.3
2014-Nov-16 12:00N 56°36' W 006°30'1211.6 1004.5 10.7 7.4
2014-Nov-16 11:00N 56°30' W 006°48'1211.6 1004.6 11.3 7.6
2014-Nov-16 10:00N 56°36' W 006°30'1414.5 1004.1 10.7 7.3
2014-Nov-16 09:00N 56°42' W 006°06'1817.8 1003.6 8.0 6.3
2014-Nov-16 08:00N 56°30' W 005°42'9 8.9 1003.0 8.0 5.3
2014-Nov-16 07:00N 56°24' W 005°30'0 0.0 1002.4 4.3 3.1
2014-Nov-16 06:00N 56°24' W 005°30'0 0.0 1001.8 4.9 3.6
2014-Nov-16 05:00N 56°24' W 005°30'0 0.0 1001.3 5.7 4.3
2014-Nov-16 04:00N 56°24' W 005°30'0 0.0 1000.8 5.4 4.0
2014-Nov-16 03:00N 56°24' W 005°30'0 0.0 1000.8 5.6 4.2
2014-Nov-16 02:00N 56°24' W 005°30'0 0.0 1000.7 5.4 3.7
2014-Nov-16 01:00N 56°24' W 005°30'0 0.0 1000.6 5.7 3.9
2014-Nov-16 00:00N 56°24' W 005°30'0 0.0 1000.6 5.7 3.7
2014-Nov-15 23:00N 56°24' W 005°30'0 0.0 1000.2 5.9 3.9
2014-Nov-15 22:00N 56°24' W 005°30'0 0.0 1000.6 6.0 3.8
2014-Nov-15 21:00N 56°24' W 005°30'0 0.0 1000.5 5.8 3.8
2014-Nov-15 20:00N 56°24' W 005°30'0 0.0 1000.6 6.6 3.9
2014-Nov-15 19:00N 56°24' W 005°30'0 0.0 1000.4 8.5 5.0
2014-Nov-15 18:00N 56°24' W 005°30'0 0.0 1000.1 8.1 4.7
2014-Nov-15 17:00N 56°24' W 005°30'0 0.0 999.4 9.8 5.3
2014-Nov-15 16:00N 56°24' W 005°30'0 0.0 999.2 10.4 4.8
2014-Nov-15 15:00N 56°24' W 005°30'1817.9 998.8 11.5 5.4
2014-Nov-15 14:00N 56°36' W 005°54'1313.2 998.8 11.2 6.1
2014-Nov-15 13:00N 56°36' W 006°18'1211.6 998.6 11.1 6.2
2014-Nov-15 12:00N 56°30' W 006°36'3 3.3 997.8 11.0 6.8
2014-Nov-15 11:00N 56°30' W 006°42'9 8.9 997.8 11.0 7.0
2014-Nov-15 10:00N 56°36' W 006°30'1716.5 998.0 11.0 6.7
2014-Nov-15 09:00N 56°36' W 006°00'1211.6 998.7 9.8 4.5
2014-Nov-15 08:00N 56°30' W 005°42'9 8.9 998.4 10.1 5.9
2014-Nov-15 07:00N 56°24' W 005°30'0 0.0 997.8 9.2 5.0
2014-Nov-15 06:00N 56°24' W 005°30'0 0.0 998.2 8.9 4.7
2014-Nov-15 05:00N 56°24' W 005°30'0 0.0 998.1 8.6 4.2
2014-Nov-15 04:00N 56°24' W 005°30'0 0.0 997.8 9.2 4.4
2014-Nov-15 03:00N 56°24' W 005°30'0 0.0 997.7 8.5 4.7
2014-Nov-15 02:00N 56°24' W 005°30'0 0.0 998.1 9.4 5.3
2014-Nov-15 01:00N 56°24' W 005°30'0 0.0 997.9 9.8 5.6
2014-Nov-15 00:00N 56°24' W 005°30'0 0.0 997.9 9.9 5.8
2014-Nov-14 23:00N 56°24' W 005°30'0 0.0 997.7 9.8 5.6
2014-Nov-14 22:00N 56°24' W 005°30'0 0.0 997.4 9.7 5.4
2014-Nov-14 21:00N 56°24' W 005°30'4113.6 997.2 9.1 5.0
2014-Nov-14 18:00N 56°48' W 006°30'1313.1 994.5 10.7 6.1
2014-Nov-14 17:00N 56°48' W 006°54'1414.4 992.6 11.0 7.3
2014-Nov-14 16:00N 56°54' W 007°18'3 3.3 991.2 11.0 7.4
2014-Nov-14 15:00N 56°54' W 007°24'1413.7 990.9 11.1 6.7
2014-Nov-14 14:00N 57°06' W 007°12'7 6.8 989.9 11.1 7.1
2014-Nov-14 13:00N 57°12' W 007°18'0 0.0 988.9 11.7 8.9
2014-Nov-14 12:00N 57°12' W 007°18'0 0.0 988.0 12.710.0
2014-Nov-14 11:00N 57°12' W 007°18'0 0.0 987.0 14.2 9.2
2014-Nov-14 10:00N 57°12' W 007°18'0 0.0 986.8 13.9 9.2
2014-Nov-14 09:00N 57°12' W 007°18'0 0.0 986.9 13.6 8.9
2014-Nov-14 08:00N 57°12' W 007°18'0 0.0 987.7 13.2 8.5
2014-Nov-14 07:00N 57°12' W 007°18'0 0.0 987.9 12.6 7.3
2014-Nov-14 06:00N 57°12' W 007°18'0 0.0 989.3 12.1 6.0
2014-Nov-14 05:00N 57°12' W 007°18'0 0.0 990.9 11.9 4.5
2014-Nov-14 04:00N 57°12' W 007°18'0 0.0 992.8 11.6 6.6
2014-Nov-14 03:00N 57°12' W 007°18'6 6.0 993.9 10.9 7.1
2014-Nov-14 02:00N 57°06' W 007°18'1212.0 993.8 10.8 7.1
2014-Nov-14 01:00N 56°54' W 007°18'3 3.3 993.8 11.2 7.8
2014-Nov-14 00:00N 56°54' W 007°24'1717.5 993.9 10.7 7.6
2014-Nov-13 23:00N 56°48' W 006°54'1414.5 993.9 10.7 7.7
2014-Nov-13 22:00N 56°42' W 006°30'1817.6 993.3 10.4 7.5
2014-Nov-13 21:00N 56°36' W 006°00'1514.5 992.6 9.7 6.7
2014-Nov-13 20:00N 56°30' W 005°36'7 6.9 991.0 8.8 7.1
2014-Nov-13 19:00N 56°24' W 005°30'0 0.0 989.0 10.8 8.2
2014-Nov-13 18:00N 56°24' W 005°30'0 0.0 988.0 11.0 6.7
2014-Nov-13 17:00N 56°24' W 005°30'0 0.0 990.5 10.0 7.2
2014-Nov-13 15:00N 56°24' W 005°30'1514.6 992.4 12.1 6.1
2014-Nov-13 14:00N 56°30' W 005°54'1615.6 992.3 12.0 6.7
2014-Nov-13 13:00N 56°42' W 006°12'1817.8 990.5 11.7 6.6
2014-Nov-13 12:00N 56°30' W 006°36'3 3.3 990.0 11.6 7.8
2014-Nov-13 11:00N 56°30' W 006°42'9 8.9 991.0 11.3 8.3
2014-Nov-13 10:00N 56°36' W 006°30'1414.5 993.1 11.5 7.7
2014-Nov-13 09:00N 56°42' W 006°06'1817.8 993.9 11.2 7.8
2014-Nov-13 08:00N 56°30' W 005°42'9 8.9 994.9 11.2 7.4
2014-Nov-13 07:00N 56°24' W 005°30'0 0.0 995.0 10.6 6.8
2014-Nov-13 06:00N 56°24' W 005°30'0 0.0 994.6 10.3 7.1
2014-Nov-13 05:00N 56°24' W 005°30'0 0.0 994.5 10.0 7.0
2014-Nov-13 04:00N 56°24' W 005°30'0 0.0 994.1 10.0 7.4
2014-Nov-13 03:00N 56°24' W 005°30'0 0.0 994.2 9.7 6.8
2014-Nov-13 02:00N 56°24' W 005°30'0 0.0 994.4 9.7 6.9
2014-Nov-13 01:00N 56°24' W 005°30'0 0.0 994.1 9.4 5.8
2014-Nov-13 00:00N 56°24' W 005°30'0 0.0 994.0 9.0 6.0
2014-Nov-12 23:00N 56°24' W 005°30'   993.0 9.3 6.2
Track history (hours):
 
Tides and Currents Weather Stations Pressure Air Temp Water Temp Dewpoint Dewpoint Depression Visibility Wind Speed Wind Dir Waves Ship Positions

Callsign AMOUK21 (name unknown)

Last reported at 2014-Nov-22 23:00 UTC. Time now 2014-Nov-23 01:13 UTC.
Position N 56°24' W 005°30'.

Barometer 1013.3 mb
Air temperature 7.7 ° C
Dewpoint 5.9 ° C

Date/timePositionNaut miles runAvg speedWind from/ knotsBaromVisibWave heightAir tempDewpointWater temp
2014-Nov-22 23:00N 56°24' W 005°30'0 0.0 1013.3 7.7 5.9
2014-Nov-22 22:00N 56°24' W 005°30'0 0.0 1012.7 7.3 5.8
2014-Nov-22 21:00N 56°24' W 005°30'0 0.0 1012.0 8.0 6.6
2014-Nov-22 20:00N 56°24' W 005°30'0 0.0 1011.3 7.9 6.5
2014-Nov-22 19:00N 56°24' W 005°30'9 4.5 1010.3 8.3 6.1
2014-Nov-22 17:00N 56°30' W 005°42'9 8.9 1008.8 9.9 6.5
2014-Nov-22 16:00N 56°24' W 005°30'0 0.0 1008.2 10.6 7.0
2014-Nov-22 15:00N 56°24' W 005°30'1514.6 1006.6 11.4 8.3
2014-Nov-22 14:00N 56°30' W 005°54'1514.5 1006.1 10.9 8.4
2014-Nov-22 13:00N 56°36' W 006°18'10 9.9 1005.2 11.1 9.1
2014-Nov-22 12:00N 56°36' W 006°36'9 8.9 1004.6 11.5 9.2
2014-Nov-22 11:00N 56°30' W 006°48'1211.6 1003.4 11.7 9.1
2014-Nov-22 10:00N 56°36' W 006°30'1716.5 1002.9 12.0 9.5
2014-Nov-22 09:00N 56°36' W 006°00'1211.6 1002.9 10.1 8.4
2014-Nov-22 08:00N 56°30' W 005°42'9 8.9 1002.8 10.2 7.7
2014-Nov-22 07:00N 56°24' W 005°30'0 0.0 1002.2 9.4 7.3
2014-Nov-22 06:00N 56°24' W 005°30'0 0.0 1001.9 9.2 6.9
2014-Nov-22 05:00N 56°24' W 005°30'0 0.0 1001.7 9.1 6.3
2014-Nov-22 04:00N 56°24' W 005°30'0 0.0 1002.6 8.5 6.1
2014-Nov-22 03:00N 56°24' W 005°30'0 0.0 1003.4 8.1 6.1
2014-Nov-22 02:00N 56°24' W 005°30'0 0.0 1003.7 8.3 5.8
2014-Nov-22 01:00N 56°24' W 005°30'0 0.0 1004.1 8.3 5.6
2014-Nov-21 23:00N 56°24' W 005°30'0 0.0 1005.6 8.5 4.8
2014-Nov-21 22:00N 56°24' W 005°30'0 0.0 1006.2 8.8 5.0
2014-Nov-21 21:00N 56°24' W 005°30'9 8.9 1007.2 8.2 5.1
2014-Nov-21 20:00N 56°30' W 005°42'1817.8 1007.3 9.3 5.1
2014-Nov-21 19:00N 56°42' W 006°06'1414.5 1007.3 9.0 4.8
2014-Nov-21 18:00N 56°48' W 006°30'1414.4 1007.7 10.1 4.2
2014-Nov-21 17:00N 56°54' W 006°54'1616.4 1007.5 9.9 5.5
2014-Nov-21 16:00N 56°54' W 007°24'0 0.0 1008.4 9.0 6.0
2014-Nov-21 15:00N 56°54' W 007°24'1413.7 1008.1 10.2 5.4
2014-Nov-21 14:00N 57°06' W 007°12'3 3.3 1011.5 10.1 4.9
2014-Nov-21 13:00N 57°06' W 007°06'1717.4 1013.4 10.2 5.3
2014-Nov-21 12:00N 57°00' W 006°36'1615.5 1015.2 10.4 4.3
2014-Nov-21 11:00N 56°48' W 006°18'1615.5 1016.3 9.4 4.7
2014-Nov-21 10:00N 56°36' W 006°00'1817.9 1016.9 9.2 5.2
2014-Nov-21 09:00N 56°24' W 005°36'3 3.3 1018.9 8.3 4.1
2014-Nov-21 08:00N 56°24' W 005°30'0 0.0 1019.0 7.7 4.0
2014-Nov-21 07:00N 56°24' W 005°30'12 5.8 1019.4 8.0 4.5
2014-Nov-21 05:00N 56°30' W 005°48'9 8.9 1020.1 9.3 5.3
2014-Nov-21 04:00N 56°36' W 006°00'1413.7 1020.4 9.0 5.2
2014-Nov-21 03:00N 56°48' W 006°12'7 6.8 1020.5 9.6 5.3
2014-Nov-21 02:00N 56°54' W 006°06'1515.5 1021.7 10.2 5.7
2014-Nov-21 01:00N 57°06' W 006°24'1313.0 1021.9 10.7 5.8
2014-Nov-21 00:00N 57°06' W 006°48'1616.3 1022.2 10.8 6.7
2014-Nov-20 23:00N 57°06' W 007°18'3 3.3 1022.7 10.9 7.2
2014-Nov-20 22:00N 57°06' W 007°12'1515.5 1023.1 10.6 7.7
2014-Nov-20 21:00N 56°54' W 007°30'10 9.8 1022.6 10.8 8.1
2014-Nov-20 20:00N 56°54' W 007°12'1414.4 1023.2 10.9 7.8
2014-Nov-20 19:00N 56°48' W 006°48'1817.5 1024.0 10.7 6.8
2014-Nov-20 18:00N 56°42' W 006°18'1414.5 1024.0 10.5 6.9
2014-Nov-20 17:00N 56°36' W 005°54'0 0.0 1024.1 10.5 6.5
2014-Nov-20 14:00N 56°36' W 005°54'1313.2 1024.4 11.0 6.8
2014-Nov-20 13:00N 56°36' W 006°18'10 9.9 1024.6 11.0 6.4
2014-Nov-20 12:00N 56°36' W 006°36'9 8.9 1024.3 11.0 6.8
2014-Nov-20 11:00N 56°30' W 006°48'1211.6 1024.9 11.1 7.7
2014-Nov-20 10:00N 56°36' W 006°30'1313.2 1025.0 10.5 6.6
2014-Nov-20 09:00N 56°36' W 006°06'1514.5 1025.1 9.3 6.5
2014-Nov-20 08:00N 56°30' W 005°42'9 8.9 1024.9 10.4 7.0
2014-Nov-20 07:00N 56°24' W 005°30'0 0.0 1024.8 6.7 4.9
2014-Nov-20 06:00N 56°24' W 005°30'0 0.0 1024.2 7.0 5.1
2014-Nov-20 05:00N 56°24' W 005°30'0 0.0 1023.7 8.5 6.3
2014-Nov-20 03:00N 56°24' W 005°30'0 0.0 1023.6 7.8 5.5
2014-Nov-20 02:00N 56°24' W 005°30'0 0.0 1023.8 8.5 5.5
2014-Nov-20 01:00N 56°24' W 005°30'0 0.0 1023.6 8.5 5.6
2014-Nov-19 23:00N 56°24' W 005°30'0 0.0 1023.4 8.3 5.3
2014-Nov-19 22:00N 56°24' W 005°30'0 0.0 1022.8 9.2 5.7
2014-Nov-19 21:00N 56°24' W 005°30'0 0.0 1022.4 8.4 5.3
2014-Nov-19 18:00N 56°24' W 005°30'9 8.9 1020.6 10.5 5.9
2014-Nov-19 17:00N 56°30' W 005°42'9 8.9 1019.8 11.3 6.8
2014-Nov-19 16:00N 56°24' W 005°30'0 0.0 1020.0 10.8 5.5
2014-Nov-19 14:00N 56°24' W 005°30'1211.6 1019.7 11.2 5.5
2014-Nov-19 13:00N 56°30' W 005°48'1817.8 1019.2 11.4 6.1
2014-Nov-19 12:00N 56°42' W 006°12'1414.5 1019.0 11.7 5.3
2014-Nov-19 11:00N 56°48' W 006°36'1414.4 1018.6 11.5 5.8
2014-Nov-19 10:00N 56°54' W 007°00'12 5.8 1018.2 11.4 6.5
2014-Nov-19 08:00N 57°00' W 007°18'1212.0 1016.1 11.1 6.5
2014-Nov-19 07:00N 57°12' W 007°18'0 0.0 1017.3 10.7 4.7
2014-Nov-19 06:00N 57°12' W 007°18'0 0.0 1017.0 10.7 5.8
2014-Nov-19 05:00N 57°12' W 007°18'0 0.0 1016.6 10.8 5.9
2014-Nov-19 04:00N 57°12' W 007°18'0 0.0 1016.4 10.8 6.4
2014-Nov-19 03:00N 57°12' W 007°18'0 0.0 1016.0 10.9 6.9
2014-Nov-19 02:00N 57°12' W 007°18'0 0.0 1015.9 10.9 7.2
2014-Nov-19 01:00N 57°12' W 007°18'0 0.0 1015.9 10.8 7.2
2014-Nov-19 00:00N 57°12' W 007°18'0 0.0 1015.8 11.1 7.4
2014-Nov-18 23:00N 57°12' W 007°18'7 6.8 1015.6 11.0 7.2
2014-Nov-18 22:00N 57°06' W 007°12'1111.5 1015.0 11.6 7.9
2014-Nov-18 21:00N 57°00' W 007°30'1211.5 1014.1 11.3 7.7
2014-Nov-18 20:00N 56°54' W 007°12'1414.4 1014.8 11.6 8.1
2014-Nov-18 19:00N 56°48' W 006°48'1817.5 1014.9 11.4 7.9
2014-Nov-18 18:00N 56°42' W 006°18'1817.8 1014.9 10.7 7.3
2014-Nov-18 17:00N 56°30' W 005°54'15 7.3 1014.5 11.1 7.4
2014-Nov-18 15:00N 56°24' W 005°30'1817.9 1013.9 12.2 6.8
2014-Nov-18 14:00N 56°36' W 005°54'1313.2 1013.5 12.0 7.7
2014-Nov-18 13:00N 56°36' W 006°18'10 9.9 1013.2 11.6 6.7
2014-Nov-18 12:00N 56°36' W 006°36'9 8.9 1013.1 11.7 7.2
2014-Nov-18 11:00N 56°30' W 006°48'1211.6 1012.8 11.7 7.3
2014-Nov-18 10:00N 56°36' W 006°30'1414.5 1013.2 11.4 7.1
2014-Nov-18 09:00N 56°42' W 006°06'1817.8 1013.5 10.7 5.6
2014-Nov-18 08:00N 56°30' W 005°42'9 8.9 1012.6 11.1 6.4
2014-Nov-18 07:00N 56°24' W 005°30'0 0.0 1012.6 10.5 5.5
2014-Nov-18 05:00N 56°24' W 005°30'0 0.0 1012.3 9.9 6.0
2014-Nov-18 01:00N 56°24' W 005°30'0 0.0 1011.9 10.1 7.1
2014-Nov-18 00:00N 56°24' W 005°30'0 0.0 1011.9 10.1 7.4
2014-Nov-17 23:00N 56°24' W 005°30'0 0.0 1011.5 9.9 7.4
2014-Nov-17 22:00N 56°24' W 005°30'0 0.0 1011.6 10.5 7.3
2014-Nov-17 21:00N 56°24' W 005°30'0 0.0 1011.3 9.9 6.4
2014-Nov-17 20:00N 56°24' W 005°30'0 0.0 1010.9 9.7 6.4
2014-Nov-17 18:00N 56°24' W 005°30'9 8.9 1010.1 10.9 7.0
2014-Nov-17 17:00N 56°30' W 005°42'3 0.8 1009.7 11.5 7.7
2014-Nov-17 13:00N 56°30' W 005°48'1817.8 1009.0 10.7 6.8
2014-Nov-17 12:00N 56°42' W 006°12'4414.8 1008.6 11.1 6.3
2014-Nov-17 09:00N 56°54' W 007°30'9 8.9 1009.7 10.9 8.1
2014-Nov-17 08:00N 57°00' W 007°18'1212.0 1009.7 11.2 8.6
2014-Nov-17 07:00N 57°12' W 007°18'0 0.0 1009.2 10.8 8.0
2014-Nov-17 06:00N 57°12' W 007°18'0 0.0 1009.1 10.2 8.6
2014-Nov-17 05:00N 57°12' W 007°18'0 0.0 1008.9 9.5 7.7
2014-Nov-17 04:00N 57°12' W 007°18'0 0.0 1008.8 9.9 7.8
2014-Nov-17 03:00N 57°12' W 007°18'0 0.0 1008.6 10.4 8.2
2014-Nov-17 02:00N 57°12' W 007°18'0 0.0 1008.7 9.9 8.6
2014-Nov-17 01:00N 57°12' W 007°18'0 0.0 1008.4 9.9 8.4
2014-Nov-17 00:00N 57°12' W 007°18'0 0.0 1008.4 10.0 8.2
2014-Nov-16 23:00N 57°12' W 007°18'0 0.0 1008.3 10.0 8.3
2014-Nov-16 22:00N 57°12' W 007°18'1212.0 1008.2 9.5 7.6
2014-Nov-16 21:00N 57°00' W 007°18'9 8.9 1006.9 10.7 8.1
2014-Nov-16 20:00N 56°54' W 007°30'1616.4 1007.8 10.6 7.1
2014-Nov-16 19:00N 56°54' W 007°00'1414.4 1006.7 11.0 8.2
2014-Nov-16 18:00N 56°48' W 006°36'1817.5 1006.2 11.1 8.3
2014-Nov-16 17:00N 56°42' W 006°06'1615.6 1005.9 10.4 7.1
2014-Nov-16 16:00N 56°30' W 005°48'1211.6 1005.1 10.4 6.4
2014-Nov-16 15:00N 56°24' W 005°30'9 8.9 1004.8 9.8 6.1
2014-Nov-16 14:00N 56°30' W 005°42'1817.8 1004.8 10.1 5.6
2014-Nov-16 13:00N 56°42' W 006°06'1414.5 1004.8 9.9 6.3
2014-Nov-16 12:00N 56°36' W 006°30'1211.6 1004.5 10.7 7.4
2014-Nov-16 11:00N 56°30' W 006°48'1211.6 1004.6 11.3 7.6
2014-Nov-16 10:00N 56°36' W 006°30'1414.5 1004.1 10.7 7.3
2014-Nov-16 09:00N 56°42' W 006°06'1817.8 1003.6 8.0 6.3
2014-Nov-16 08:00N 56°30' W 005°42'9 8.9 1003.0 8.0 5.3
2014-Nov-16 07:00N 56°24' W 005°30'0 0.0 1002.4 4.3 3.1
2014-Nov-16 06:00N 56°24' W 005°30'0 0.0 1001.8 4.9 3.6
2014-Nov-16 05:00N 56°24' W 005°30'0 0.0 1001.3 5.7 4.3
2014-Nov-16 04:00N 56°24' W 005°30'0 0.0 1000.8 5.4 4.0
2014-Nov-16 03:00N 56°24' W 005°30'0 0.0 1000.8 5.6 4.2
2014-Nov-16 02:00N 56°24' W 005°30'0 0.0 1000.7 5.4 3.7
2014-Nov-16 01:00N 56°24' W 005°30'0 0.0 1000.6 5.7 3.9
2014-Nov-16 00:00N 56°24' W 005°30'0 0.0 1000.6 5.7 3.7
2014-Nov-15 23:00N 56°24' W 005°30'0 0.0 1000.2 5.9 3.9
2014-Nov-15 22:00N 56°24' W 005°30'0 0.0 1000.6 6.0 3.8
2014-Nov-15 21:00N 56°24' W 005°30'0 0.0 1000.5 5.8 3.8
2014-Nov-15 20:00N 56°24' W 005°30'0 0.0 1000.6 6.6 3.9
2014-Nov-15 19:00N 56°24' W 005°30'0 0.0 1000.4 8.5 5.0
2014-Nov-15 18:00N 56°24' W 005°30'0 0.0 1000.1 8.1 4.7
2014-Nov-15 17:00N 56°24' W 005°30'0 0.0 999.4 9.8 5.3
2014-Nov-15 16:00N 56°24' W 005°30'0 0.0 999.2 10.4 4.8
2014-Nov-15 15:00N 56°24' W 005°30'1817.9 998.8 11.5 5.4
2014-Nov-15 14:00N 56°36' W 005°54'1313.2 998.8 11.2 6.1
2014-Nov-15 13:00N 56°36' W 006°18'1211.6 998.6 11.1 6.2
2014-Nov-15 12:00N 56°30' W 006°36'3 3.3 997.8 11.0 6.8
2014-Nov-15 11:00N 56°30' W 006°42'9 8.9 997.8 11.0 7.0
2014-Nov-15 10:00N 56°36' W 006°30'1716.5 998.0 11.0 6.7
2014-Nov-15 09:00N 56°36' W 006°00'1211.6 998.7 9.8 4.5
2014-Nov-15 08:00N 56°30' W 005°42'9 8.9 998.4 10.1 5.9
2014-Nov-15 07:00N 56°24' W 005°30'0 0.0 997.8 9.2 5.0
2014-Nov-15 06:00N 56°24' W 005°30'0 0.0 998.2 8.9 4.7
2014-Nov-15 05:00N 56°24' W 005°30'0 0.0 998.1 8.6 4.2
2014-Nov-15 04:00N 56°24' W 005°30'0 0.0 997.8 9.2 4.4
2014-Nov-15 03:00N 56°24' W 005°30'0 0.0 997.7 8.5 4.7
2014-Nov-15 02:00N 56°24' W 005°30'0 0.0 998.1 9.4 5.3
2014-Nov-15 01:00N 56°24' W 005°30'0 0.0 997.9 9.8 5.6
2014-Nov-15 00:00N 56°24' W 005°30'0 0.0 997.9 9.9 5.8
2014-Nov-14 23:00N 56°24' W 005°30'0 0.0 997.7 9.8 5.6
2014-Nov-14 22:00N 56°24' W 005°30'0 0.0 997.4 9.7 5.4
2014-Nov-14 21:00N 56°24' W 005°30'4113.6 997.2 9.1 5.0
2014-Nov-14 18:00N 56°48' W 006°30'1313.1 994.5 10.7 6.1
2014-Nov-14 17:00N 56°48' W 006°54'1414.4 992.6 11.0 7.3
2014-Nov-14 16:00N 56°54' W 007°18'3 3.3 991.2 11.0 7.4
2014-Nov-14 15:00N 56°54' W 007°24'1413.7 990.9 11.1 6.7
2014-Nov-14 14:00N 57°06' W 007°12'7 6.8 989.9 11.1 7.1
2014-Nov-14 13:00N 57°12' W 007°18'0 0.0 988.9 11.7 8.9
2014-Nov-14 12:00N 57°12' W 007°18'0 0.0 988.0 12.710.0
2014-Nov-14 11:00N 57°12' W 007°18'0 0.0 987.0 14.2 9.2
2014-Nov-14 10:00N 57°12' W 007°18'0 0.0 986.8 13.9 9.2
2014-Nov-14 09:00N 57°12' W 007°18'0 0.0 986.9 13.6 8.9
2014-Nov-14 08:00N 57°12' W 007°18'0 0.0 987.7 13.2 8.5
2014-Nov-14 07:00N 57°12' W 007°18'0 0.0 987.9 12.6 7.3
2014-Nov-14 06:00N 57°12' W 007°18'0 0.0 989.3 12.1 6.0
2014-Nov-14 05:00N 57°12' W 007°18'0 0.0 990.9 11.9 4.5
2014-Nov-14 04:00N 57°12' W 007°18'0 0.0 992.8 11.6 6.6
2014-Nov-14 03:00N 57°12' W 007°18'6 6.0 993.9 10.9 7.1
2014-Nov-14 02:00N 57°06' W 007°18'1212.0 993.8 10.8 7.1
2014-Nov-14 01:00N 56°54' W 007°18'3 3.3 993.8 11.2 7.8
2014-Nov-14 00:00N 56°54' W 007°24'1717.5 993.9 10.7 7.6
2014-Nov-13 23:00N 56°48' W 006°54'1414.5 993.9 10.7 7.7
2014-Nov-13 22:00N 56°42' W 006°30'1817.6 993.3 10.4 7.5
2014-Nov-13 21:00N 56°36' W 006°00'1514.5 992.6 9.7 6.7
2014-Nov-13 20:00N 56°30' W 005°36'7 6.9 991.0 8.8 7.1
2014-Nov-13 19:00N 56°24' W 005°30'0 0.0 989.0 10.8 8.2
2014-Nov-13 18:00N 56°24' W 005°30'0 0.0 988.0 11.0 6.7
2014-Nov-13 17:00N 56°24' W 005°30'0 0.0 990.5 10.0 7.2
2014-Nov-13 15:00N 56°24' W 005°30'1514.6 992.4 12.1 6.1
2014-Nov-13 14:00N 56°30' W 005°54'1615.6 992.3 12.0 6.7
2014-Nov-13 13:00N 56°42' W 006°12'1817.8 990.5 11.7 6.6
2014-Nov-13 12:00N 56°30' W 006°36'3 3.3 990.0 11.6 7.8
2014-Nov-13 11:00N 56°30' W 006°42'9 8.9 991.0 11.3 8.3
2014-Nov-13 10:00N 56°36' W 006°30'1414.5 993.1 11.5 7.7
2014-Nov-13 09:00N 56°42' W 006°06'1817.8 993.9 11.2 7.8
2014-Nov-13 08:00N 56°30' W 005°42'9 8.9 994.9 11.2 7.4
2014-Nov-13 07:00N 56°24' W 005°30'0 0.0 995.0 10.6 6.8
2014-Nov-13 06:00N 56°24' W 005°30'0 0.0 994.6 10.3 7.1
2014-Nov-13 05:00N 56°24' W 005°30'0 0.0 994.5 10.0 7.0
2014-Nov-13 04:00N 56°24' W 005°30'0 0.0 994.1 10.0 7.4
2014-Nov-13 03:00N 56°24' W 005°30'0 0.0 994.2 9.7 6.8
2014-Nov-13 02:00N 56°24' W 005°30'0 0.0 994.4 9.7 6.9
2014-Nov-13 01:00N 56°24' W 005°30'0 0.0 994.1 9.4 5.8
2014-Nov-13 00:00N 56°24' W 005°30'0 0.0 994.0 9.0 6.0
2014-Nov-12 23:00N 56°24' W 005°30'   993.0 9.3 6.2

Dump ship's entire track history